createdAt,value
2022-08-05T00:02:14.737Z,84.77
2022-08-05T00:04:55.542Z,84.89
2022-08-05T00:07:58.807Z,84.80
2022-08-05T00:09:57.749Z,85.20
2022-08-05T00:12:31.424Z,85.35
2022-08-05T00:15:54.007Z,85.30
2022-08-05T00:17:39.830Z,85.34
2022-08-05T00:20:14.487Z,84.89
2022-08-05T00:22:59.603Z,84.85
2022-08-05T00:25:23.328Z,84.95
2022-08-05T00:27:56.093Z,84.99
2022-08-05T00:30:32.039Z,85.17
2022-08-05T00:33:03.932Z,85.89
2022-08-05T00:35:37.534Z,86.37
2022-08-05T00:38:11.926Z,86.92
2022-08-05T00:40:54.387Z,87.31
2022-08-05T00:43:27.243Z,87.81
2022-08-05T00:46:02.066Z,88.55
2022-08-05T00:48:35.968Z,89.08
2022-08-05T00:51:50.235Z,89.52
2022-08-05T00:54:02.319Z,89.77
2022-08-05T00:56:20.474Z,89.99
2022-08-05T00:58:54.965Z,90.15
2022-08-05T01:01:48.246Z,90.46
2022-08-05T01:04:13.770Z,90.54
2022-08-05T01:06:40.732Z,90.74
2022-08-05T01:09:15.512Z,91.12
2022-08-05T01:11:52.516Z,91.43
2022-08-05T01:14:43.134Z,91.54
2022-08-05T01:17:32.221Z,91.72
2022-08-05T01:20:33.879Z,92.00
2022-08-05T01:23:43.004Z,92.40
2022-08-05T01:26:28.089Z,92.48
2022-08-05T01:29:23.031Z,92.53
2022-08-05T01:31:58.541Z,93.04
2022-08-05T01:34:39.884Z,93.07
2022-08-05T01:37:32.724Z,93.03
2022-08-05T01:40:08.154Z,92.73
2022-08-05T01:42:43.562Z,93.09
2022-08-05T01:45:18.136Z,93.13
2022-08-05T01:47:54.546Z,93.07
2022-08-05T01:50:38.123Z,92.69
2022-08-05T01:53:17.160Z,92.54
2022-08-05T01:55:52.864Z,92.58
2022-08-05T01:58:41.036Z,91.98
2022-08-05T02:01:04.923Z,91.57
2022-08-05T02:03:45.299Z,91.29
2022-08-05T02:06:38.431Z,91.21
2022-08-05T02:08:58.327Z,91.16
2022-08-05T02:11:33.184Z,91.11
2022-08-05T02:14:13.642Z,90.99
2022-08-05T02:16:55.715Z,90.83
2022-08-05T02:19:40.587Z,90.51
2022-08-05T02:22:26.618Z,90.18
2022-08-05T02:25:06.589Z,89.79
2022-08-05T02:27:58.927Z,89.72
2022-08-05T02:30:17.037Z,89.80
2022-08-05T02:32:52.855Z,89.83
2022-08-05T02:35:37.454Z,89.75
2022-08-05T02:38:03.215Z,89.72
2022-08-05T02:40:36.612Z,89.87
2022-08-05T02:43:09.547Z,89.97
2022-08-05T02:45:52.519Z,90.30
2022-08-05T02:48:19.764Z,90.58
2022-08-05T02:50:54.939Z,90.96
2022-08-05T02:53:28.557Z,91.49
2022-08-05T02:56:02.904Z,91.84
2022-08-05T02:58:43.748Z,91.83
2022-08-05T03:01:27.318Z,92.12
2022-08-05T03:04:14.048Z,92.14
2022-08-05T03:06:54.482Z,92.50
2022-08-05T03:09:17.843Z,92.78
2022-08-05T03:11:55.421Z,92.67
2022-08-05T03:14:26.335Z,92.62
2022-08-05T03:16:59.287Z,92.62
2022-08-05T03:19:34.513Z,92.49
2022-08-05T03:22:16.760Z,92.67
2022-08-05T03:24:42.495Z,93.02
2022-08-05T03:27:17.281Z,92.93
2022-08-05T03:30:08.049Z,93.25
2022-08-05T03:32:30.924Z,93.36
2022-08-05T03:34:59.896Z,93.74
2022-08-05T03:37:41.754Z,93.91
2022-08-05T03:40:11.989Z,93.42
2022-08-05T03:42:52.450Z,93.05
2022-08-05T03:45:21.386Z,93.23
2022-08-05T03:47:56.856Z,93.14
2022-08-05T03:50:35.870Z,92.52
2022-08-05T03:55:51.843Z,91.97
2022-08-05T03:56:10.395Z,91.33
2022-08-05T03:58:38.108Z,90.52
2022-08-05T04:01:13.448Z,89.91
2022-08-05T04:04:10.190Z,88.75
2022-08-05T04:06:22.518Z,88.01
2022-08-05T04:08:57.462Z,85.77
2022-08-05T04:11:47.387Z,85.77
2022-08-05T04:14:07.424Z,85.29
2022-08-05T04:16:40.727Z,84.54
2022-08-05T04:19:14.859Z,84.12
2022-08-05T04:22:10.163Z,83.65
2022-08-05T04:24:23.671Z,83.76
2022-08-05T04:26:58.331Z,83.89
2022-08-05T04:29:32.239Z,84.15
2022-08-05T04:32:05.838Z,84.23
2022-08-05T04:34:42.898Z,84.62
2022-08-05T04:37:14.850Z,84.84
2022-08-05T04:39:52.946Z,85.46
2022-08-05T04:42:25.428Z,85.46
2022-08-05T04:44:58.483Z,85.49
2022-08-05T04:47:38.620Z,85.67
2022-08-05T04:50:11.614Z,85.43
2022-08-05T04:52:42.341Z,85.67
2022-08-05T04:55:17.189Z,85.67
2022-08-05T04:57:54.261Z,85.36
2022-08-05T05:00:26.177Z,85.25
2022-08-05T05:03:03.670Z,85.07
2022-08-05T05:05:34.935Z,84.83
2022-08-05T05:08:14.436Z,84.23
2022-08-05T05:10:56.303Z,84.39
2022-08-05T05:13:22.703Z,83.38
2022-08-05T05:15:59.523Z,83.38
2022-08-05T05:18:33.731Z,82.93
2022-08-05T05:21:05.641Z,82.77
2022-08-05T05:24:03.721Z,82.63
2022-08-05T05:26:13.468Z,82.31
2022-08-05T05:28:49.380Z,81.90
2022-08-05T05:31:22.391Z,81.38
2022-08-05T05:33:59.663Z,81.38
2022-08-05T05:36:32.480Z,81.40
2022-08-05T05:39:10.956Z,80.64
2022-08-05T05:41:41.936Z,80.64
2022-08-05T05:44:36.897Z,80.33
2022-08-05T05:46:49.611Z,79.86
2022-08-05T05:49:24.096Z,79.00
2022-08-05T05:51:57.588Z,79.00
2022-08-05T05:54:49.723Z,78.61
2022-08-05T05:57:05.271Z,78.34
2022-08-05T05:59:40.202Z,78.69
2022-08-05T06:02:13.410Z,78.28
2022-08-05T06:04:49.177Z,78.49
2022-08-05T06:07:22.391Z,78.11
2022-08-05T06:10:04.322Z,77.95
2022-08-05T06:12:30.309Z,77.81
2022-08-05T06:15:04.554Z,77.39
2022-08-05T06:17:52.959Z,76.92
2022-08-05T06:20:21.362Z,76.73
2022-08-05T06:22:49.227Z,76.71
2022-08-05T06:25:24.598Z,76.83
2022-08-05T06:28:12.353Z,76.21
2022-08-05T06:30:32.385Z,75.67
2022-08-05T06:33:10.051Z,75.62
2022-08-05T06:36:04.164Z,75.47
2022-08-05T06:38:16.133Z,75.43
2022-08-05T06:40:49.461Z,74.94
2022-08-05T06:43:58.875Z,74.96
2022-08-05T06:46:04.106Z,75.06
2022-08-05T06:48:53.641Z,74.79
2022-08-05T06:51:09.365Z,74.73
2022-08-05T06:53:41.494Z,74.71
2022-08-05T06:56:25.905Z,74.11
2022-08-05T06:58:51.168Z,73.66
2022-08-05T07:01:27.688Z,73.56
2022-08-05T07:03:58.643Z,72.66
2022-08-05T07:06:32.844Z,72.87
2022-08-05T07:09:05.956Z,72.80
2022-08-05T07:11:39.780Z,72.91
2022-08-05T07:14:30.715Z,73.08
2022-08-05T07:17:58.903Z,72.98
2022-08-05T07:20:16.857Z,72.98
2022-08-05T07:22:15.761Z,72.51
2022-08-05T07:24:52.730Z,71.72
2022-08-05T07:27:22.672Z,71.48
2022-08-05T07:30:23.888Z,71.35
2022-08-05T07:32:40.297Z,70.65
2022-08-05T07:36:02.310Z,70.42
2022-08-05T07:37:51.245Z,70.39
2022-08-05T07:40:32.288Z,70.25
2022-08-05T07:43:04.757Z,70.04
2022-08-05T07:45:56.628Z,70.09
2022-08-05T07:48:10.068Z,70.12
2022-08-05T07:50:43.206Z,69.86
2022-08-05T07:53:17.799Z,69.75
2022-08-05T07:56:06.166Z,69.26
2022-08-05T07:58:57.649Z,68.83
2022-08-05T08:01:01.989Z,68.68
2022-08-05T08:03:44.401Z,68.31
2022-08-05T08:06:11.687Z,67.99
2022-08-05T08:08:44.551Z,67.73
2022-08-05T08:11:17.921Z,67.98
2022-08-05T08:14:00.599Z,67.40
2022-08-05T08:16:34.928Z,66.95
2022-08-05T08:19:02.994Z,66.60
2022-08-05T08:21:36.650Z,66.44
2022-08-05T08:24:14.142Z,66.43
2022-08-05T08:26:46.035Z,65.76
2022-08-05T08:30:03.367Z,65.30
2022-08-05T08:31:54.211Z,65.05
2022-08-05T08:34:30.569Z,65.23
2022-08-05T08:37:05.114Z,65.21
2022-08-05T08:39:38.242Z,64.49
2022-08-05T08:42:34.229Z,63.35
2022-08-05T08:45:23.123Z,63.59
2022-08-05T08:48:06.846Z,63.08
2022-08-05T08:50:06.142Z,63.13
2022-08-05T08:52:38.354Z,62.64
2022-08-05T08:55:13.128Z,62.00
2022-08-05T08:57:58.394Z,61.60
2022-08-05T09:00:23.813Z,61.70
2022-08-05T09:02:59.480Z,61.31
2022-08-05T09:05:38.847Z,61.76
2022-08-05T09:08:09.698Z,61.83
2022-08-05T09:10:46.765Z,61.14
2022-08-05T09:13:20.342Z,60.19
2022-08-05T09:15:55.322Z,60.13
2022-08-05T09:18:28.280Z,59.95
2022-08-05T09:21:03.214Z,60.37
2022-08-05T09:23:43.588Z,60.45
2022-08-05T09:26:20.555Z,60.25
2022-08-05T09:28:57.368Z,60.24
2022-08-05T09:32:40.300Z,60.50
2022-08-05T09:34:10.403Z,59.88
2022-08-05T09:36:56.412Z,58.87
2022-08-05T09:39:41.470Z,58.11
2022-08-05T09:42:04.931Z,57.80
2022-08-05T09:44:42.665Z,57.26
2022-08-05T09:47:21.944Z,57.30
2022-08-05T09:50:01.123Z,57.21
2022-08-05T09:52:45.122Z,57.66
2022-08-05T09:55:58.643Z,57.48
2022-08-05T09:57:48.565Z,58.03
2022-08-05T10:00:25.224Z,58.43
2022-08-05T10:02:59.170Z,58.26
2022-08-05T10:05:32.875Z,58.44
2022-08-05T10:08:35.537Z,58.89
2022-08-05T10:10:53.851Z,59.54
2022-08-05T10:13:45.515Z,59.97
2022-08-05T10:16:33.838Z,60.75
2022-08-05T10:19:09.509Z,60.84
2022-08-05T10:21:41.505Z,61.02
2022-08-05T10:24:15.253Z,61.27
2022-08-05T10:26:52.884Z,60.76
2022-08-05T10:30:06.387Z,60.88
2022-08-05T10:32:52.053Z,61.34
2022-08-05T10:34:36.680Z,61.73
2022-08-05T10:37:13.365Z,62.19
2022-08-05T10:39:59.274Z,62.49
2022-08-05T10:42:33.771Z,62.86
2022-08-05T10:45:00.615Z,63.23
2022-08-05T10:47:37.660Z,63.22
2022-08-05T10:50:32.108Z,63.54
2022-08-05T10:52:55.029Z,63.92
2022-08-05T10:55:38.556Z,64.26
2022-08-05T10:58:12.033Z,64.47
2022-08-05T11:00:55.311Z,64.77
2022-08-05T11:03:27.076Z,65.17
2022-08-05T11:06:15.007Z,65.69
2022-08-05T11:09:31.930Z,66.12
2022-08-05T11:11:58.375Z,66.67
2022-08-05T11:15:00.981Z,67.40
2022-08-05T11:18:07.687Z,67.78
2022-08-05T11:20:18.410Z,68.23
2022-08-05T11:22:53.952Z,68.56
2022-08-05T11:26:05.070Z,68.81
2022-08-05T11:28:18.058Z,69.12
2022-08-05T11:31:05.866Z,69.37
2022-08-05T11:33:48.958Z,69.62
2022-08-05T11:36:34.654Z,69.88
2022-08-05T11:39:00.198Z,70.27
2022-08-05T11:42:00.649Z,70.50
2022-08-05T11:44:40.373Z,70.66
2022-08-05T11:47:09.970Z,70.78
2022-08-05T11:49:28.126Z,70.92
2022-08-05T11:52:08.429Z,70.97
2022-08-05T11:54:38.382Z,71.24
2022-08-05T11:57:24.910Z,71.57
2022-08-05T11:59:50.398Z,71.77
2022-08-05T12:02:31.603Z,71.87
2022-08-05T12:05:06.850Z,71.91
2022-08-05T12:08:03.360Z,72.28
2022-08-05T12:10:15.326Z,73.00
2022-08-05T12:12:59.942Z,73.29
2022-08-05T12:15:35.920Z,73.22
2022-08-05T12:18:09.928Z,73.56
2022-08-05T12:20:35.111Z,73.84
2022-08-05T12:23:14.305Z,73.92
2022-08-05T12:25:56.446Z,73.92
2022-08-05T12:28:39.955Z,74.24
2022-08-05T12:31:12.880Z,74.19
2022-08-05T12:33:48.426Z,74.64
2022-08-05T12:36:21.757Z,74.75
2022-08-05T12:38:57.655Z,75.19
2022-08-05T12:41:36.245Z,75.63
2022-08-05T12:44:14.213Z,75.44
2022-08-05T12:46:54.057Z,76.00
2022-08-05T12:49:27.155Z,75.55
2022-08-05T12:52:13.649Z,75.54
2022-08-05T12:54:38.239Z,75.84
2022-08-05T12:57:13.243Z,76.29
2022-08-05T13:01:57.369Z,76.75
2022-08-05T13:02:31.519Z,76.93
2022-08-05T13:05:08.142Z,77.75
2022-08-05T13:08:01.144Z,79.12
2022-08-05T13:10:20.459Z,80.70
2022-08-05T13:12:58.044Z,81.52
2022-08-05T13:15:41.574Z,82.41
2022-08-05T13:18:08.545Z,82.45
2022-08-05T13:20:41.470Z,82.88
2022-08-05T13:23:18.113Z,83.48
2022-08-05T13:25:59.228Z,83.16
2022-08-05T13:28:26.433Z,82.84
2022-08-05T13:30:59.388Z,82.98
2022-08-05T13:34:21.105Z,83.31
2022-08-05T13:36:09.331Z,84.13
2022-08-05T13:38:43.317Z,84.67
2022-08-05T13:41:16.799Z,85.22
2022-08-05T13:43:54.754Z,85.56
2022-08-05T13:46:43.836Z,86.22
2022-08-05T13:49:01.057Z,86.65
2022-08-05T13:51:40.090Z,86.85
2022-08-05T13:54:12.710Z,87.17
2022-08-05T13:56:50.876Z,87.24
2022-08-05T13:59:27.226Z,87.01
2022-08-05T14:02:01.000Z,87.01
2022-08-05T14:05:00.507Z,86.84
2022-08-05T14:07:59.964Z,86.95
2022-08-05T14:10:28.124Z,86.63
2022-08-05T14:13:01.724Z,86.78
2022-08-05T14:16:07.547Z,86.98
2022-08-05T14:18:15.063Z,87.25
2022-08-05T14:20:46.834Z,87.63
2022-08-05T14:23:25.803Z,88.00
2022-08-05T14:25:58.566Z,88.59
2022-08-05T14:28:32.340Z,88.82
2022-08-05T14:31:05.244Z,89.09
2022-08-05T14:34:00.027Z,89.17
2022-08-05T14:36:15.453Z,88.92
2022-08-05T14:38:48.304Z,88.62
2022-08-05T14:41:21.210Z,88.20
2022-08-05T14:44:02.194Z,88.25
2022-08-05T14:46:31.680Z,88.09
2022-08-05T14:49:08.054Z,88.05
2022-08-05T14:51:43.234Z,87.82
2022-08-05T14:54:29.989Z,87.68
2022-08-05T14:56:54.823Z,87.23
2022-08-05T14:59:29.539Z,87.62
2022-08-05T15:02:01.717Z,87.86
2022-08-05T15:04:36.487Z,87.92
2022-08-05T15:07:10.945Z,88.23
2022-08-05T15:09:51.658Z,88.55
2022-08-05T15:12:21.163Z,88.40
2022-08-05T15:14:56.140Z,88.35
2022-08-05T15:17:46.685Z,88.27
2022-08-05T15:20:03.700Z,88.21
2022-08-05T15:22:36.950Z,88.23
2022-08-05T15:25:14.153Z,88.23
2022-08-05T15:27:52.326Z,88.39
2022-08-05T15:30:20.730Z,88.18
2022-08-05T15:32:56.850Z,88.03
2022-08-05T15:35:36.175Z,87.75
2022-08-05T15:38:33.519Z,87.61
2022-08-05T15:41:00.919Z,87.15
2022-08-05T15:43:20.341Z,86.86
2022-08-05T15:45:59.804Z,86.76
2022-08-05T15:48:23.817Z,86.75
2022-08-05T15:50:57.059Z,86.67
2022-08-05T15:53:38.383Z,86.39
2022-08-05T15:56:11.579Z,86.63
2022-08-05T15:58:41.023Z,86.36
2022-08-05T16:01:17.860Z,85.62
2022-08-05T16:03:51.044Z,84.62
2022-08-05T16:06:24.759Z,83.51
2022-08-05T16:08:58.018Z,81.69
2022-08-05T16:11:43.036Z,80.72
2022-08-05T16:14:06.648Z,79.52
2022-08-05T16:16:39.617Z,78.19
2022-08-05T16:19:18.812Z,76.64
2022-08-05T16:22:01.087Z,75.55
2022-08-05T16:24:40.153Z,75.09
2022-08-05T16:27:02.352Z,74.84
2022-08-05T16:29:37.478Z,74.73
2022-08-05T16:32:10.671Z,74.49
2022-08-05T16:34:43.595Z,74.37
2022-08-05T16:38:02.655Z,74.42
2022-08-05T16:40:05.155Z,74.26
2022-08-05T16:42:27.522Z,74.15
2022-08-05T16:45:00.194Z,74.26
2022-08-05T16:47:36.329Z,74.09
2022-08-05T16:50:10.511Z,74.17
2022-08-05T16:52:45.944Z,73.94
2022-08-05T16:55:19.777Z,74.07
2022-08-05T16:58:01.677Z,74.12
2022-08-05T17:00:34.084Z,74.05
2022-08-05T17:03:03.778Z,73.99
2022-08-05T17:05:38.178Z,74.08
2022-08-05T17:08:11.479Z,74.12
2022-08-05T17:10:46.290Z,74.16
2022-08-05T17:13:21.608Z,74.39
2022-08-05T17:16:02.797Z,74.22
2022-08-05T17:18:29.985Z,74.25
2022-08-05T17:21:02.815Z,74.30
2022-08-05T17:24:03.122Z,74.42
2022-08-05T17:26:12.164Z,74.28
2022-08-05T17:28:47.270Z,74.63
2022-08-05T17:31:24.801Z,74.63
2022-08-05T17:33:57.736Z,74.47
2022-08-05T17:36:32.440Z,74.55
2022-08-05T17:39:05.728Z,74.78
2022-08-05T17:42:18.393Z,75.01
2022-08-05T17:44:16.477Z,75.16
2022-08-05T17:46:49.334Z,75.33
2022-08-05T17:49:23.800Z,75.43
2022-08-05T17:51:57.397Z,75.49
2022-08-05T17:54:31.813Z,75.92
2022-08-05T17:57:05.720Z,75.64
2022-08-05T17:59:40.319Z,75.64
2022-08-05T18:02:13.401Z,75.73
2022-08-05T18:04:51.183Z,75.66
2022-08-05T18:07:22.479Z,75.33
2022-08-05T18:09:59.663Z,74.71
2022-08-05T18:12:31.875Z,74.48
2022-08-05T18:15:08.857Z,74.34
2022-08-05T18:18:00.830Z,74.17
2022-08-05T18:20:16.517Z,74.23
2022-08-05T18:22:54.560Z,74.35
2022-08-05T18:25:25.039Z,74.46
2022-08-05T18:27:58.097Z,74.46
2022-08-05T18:30:30.879Z,74.15
2022-08-05T18:33:04.860Z,73.96
2022-08-05T18:35:59.738Z,73.98
2022-08-05T18:38:12.950Z,74.09
2022-08-05T18:41:56.551Z,74.24
2022-08-05T18:43:23.163Z,74.48
2022-08-05T18:45:55.261Z,74.66
2022-08-05T18:48:32.957Z,74.85
2022-08-05T18:52:05.827Z,75.07
2022-08-05T18:53:57.662Z,75.33
2022-08-05T18:56:30.485Z,75.67
2022-08-05T18:59:41.900Z,75.95
2022-08-05T19:01:47.435Z,76.23
2022-08-05T19:04:14.200Z,76.36
2022-08-05T19:06:50.033Z,76.64
2022-08-05T19:09:22.971Z,76.64
2022-08-05T19:12:00.494Z,76.69
2022-08-05T19:14:53.551Z,76.74
2022-08-05T19:17:09.290Z,76.78
2022-08-05T19:19:46.896Z,76.52
2022-08-05T19:22:19.238Z,76.52
2022-08-05T19:24:56.717Z,76.95
2022-08-05T19:27:30.795Z,77.16
2022-08-05T19:30:05.446Z,77.36
2022-08-05T19:32:39.636Z,77.57
2022-08-05T19:35:13.289Z,77.78
2022-08-05T19:38:05.974Z,77.92
2022-08-05T19:40:24.285Z,78.15
2022-08-05T19:43:04.510Z,78.36
2022-08-05T19:45:33.285Z,78.59
2022-08-05T19:48:07.479Z,78.86
2022-08-05T19:50:41.990Z,79.15
2022-08-05T19:53:14.770Z,79.44
2022-08-05T19:56:14.452Z,79.67
2022-08-05T19:58:29.272Z,79.74
2022-08-05T20:00:57.765Z,79.78
2022-08-05T20:03:37.965Z,79.76
2022-08-05T20:06:11.692Z,79.77
2022-08-05T20:08:40.960Z,79.86
2022-08-05T20:11:18.103Z,80.04
2022-08-05T20:13:58.940Z,80.32
2022-08-05T20:16:25.017Z,80.61
2022-08-05T20:18:58.049Z,80.87
2022-08-05T20:21:32.613Z,81.02
2022-08-05T20:24:06.397Z,81.17
2022-08-05T20:26:39.508Z,81.29
2022-08-05T20:29:27.644Z,81.38
2022-08-05T20:31:53.464Z,81.60
2022-08-05T20:34:23.041Z,81.84
2022-08-05T20:36:56.233Z,82.07
2022-08-05T20:39:35.757Z,82.33
2022-08-05T20:42:03.452Z,82.47
2022-08-05T20:44:38.207Z,82.58
2022-08-05T20:47:11.023Z,82.70
2022-08-05T20:49:43.882Z,82.92
2022-08-05T20:52:17.772Z,82.94
2022-08-05T20:55:55.377Z,82.97
2022-08-05T20:57:42.641Z,82.99
2022-08-05T21:00:19.519Z,83.10
2022-08-05T21:02:39.486Z,83.18
2022-08-05T21:05:09.719Z,83.27
2022-08-05T21:07:50.711Z,83.24
2022-08-05T21:10:17.655Z,83.23
2022-08-05T21:12:57.993Z,83.30
2022-08-05T21:15:25.327Z,83.31
2022-08-05T21:17:59.823Z,83.30
2022-08-05T21:20:34.205Z,83.41
2022-08-05T21:23:07.748Z,83.40
2022-08-05T21:25:42.237Z,83.47
2022-08-05T21:28:18.733Z,83.40
2022-08-05T21:30:49.464Z,83.31
2022-08-05T21:33:23.568Z,83.19
2022-08-05T21:35:58.740Z,83.17
2022-08-05T21:38:30.539Z,83.19
2022-08-05T21:41:03.586Z,83.26
2022-08-05T21:43:41.743Z,83.36
2022-08-05T21:46:12.169Z,83.48
2022-08-05T21:48:45.179Z,83.58
2022-08-05T21:52:16.457Z,83.73
2022-08-05T21:53:59.542Z,83.82
2022-08-05T21:56:26.813Z,83.87
2022-08-05T21:58:59.551Z,83.93
2022-08-05T22:01:35.499Z,84.04
2022-08-05T22:04:13.368Z,84.05
2022-08-05T22:06:50.551Z,84.05
2022-08-05T22:09:21.037Z,83.90
2022-08-05T22:11:53.197Z,83.70
2022-08-05T22:14:35.011Z,83.64
2022-08-05T22:17:04.896Z,83.49
2022-08-05T22:20:02.998Z,83.32
2022-08-05T22:22:12.901Z,83.16
2022-08-05T22:25:05.783Z,83.00
2022-08-05T22:28:08.742Z,82.88
2022-08-05T22:30:22.284Z,82.81
2022-08-05T22:32:55.140Z,82.64
2022-08-05T22:35:31.061Z,82.60
2022-08-05T22:38:03.135Z,82.62
2022-08-05T22:40:37.047Z,82.74
2022-08-05T22:43:10.227Z,82.97
2022-08-05T22:45:44.512Z,82.99
2022-08-05T22:48:21.980Z,83.20
2022-08-05T22:50:56.286Z,83.35
2022-08-05T22:53:26.997Z,83.47
2022-08-05T22:56:01.425Z,83.58
2022-08-05T22:58:34.497Z,83.57
2022-08-05T23:01:09.027Z,83.63
2022-08-05T23:03:58.757Z,83.72
2022-08-05T23:06:17.058Z,83.71
2022-08-05T23:08:52.303Z,83.79
2022-08-05T23:11:25.221Z,83.85
2022-08-05T23:13:58.378Z,83.94
2022-08-05T23:16:49.463Z,83.94
2022-08-05T23:19:26.117Z,83.96
2022-08-05T23:21:58.193Z,83.94
2022-08-05T23:24:31.744Z,83.90
2022-08-05T23:27:04.958Z,83.96
2022-08-05T23:29:37.842Z,84.09
2022-08-05T23:32:11.037Z,84.27
2022-08-05T23:34:43.998Z,84.59
2022-08-05T23:37:16.591Z,84.92
2022-08-05T23:39:54.192Z,85.06
2022-08-05T23:42:29.301Z,85.16
2022-08-05T23:44:59.387Z,85.12
2022-08-05T23:47:33.534Z,85.06
2022-08-05T23:50:09.501Z,84.92
2022-08-05T23:52:49.511Z,84.78
2022-08-05T23:55:16.769Z,84.68
2022-08-05T23:57:51.204Z,84.71
